Terminal Aerodrome Forecast
Issued by NWS

Home | Current Version | Previous Version | Text Only | Print | Product List | Glossary On
Versions: 1 2 3 4 5 6 7 8 9 10 11 12 13 14 15 16 17 18 19 20 21 22 23 24 25 26 27 28
000
FTUS45 KPSR 281832 AAA
TAFIWA
TAF AMD
KIWA 281832Z 2819/2918 29007KT P6SM SCT120 SCT200
     FM290600 17012KT 5SM BLDU BKN150
     FM290800 14005KT P6SM BKN150=

USA.gov is the U.S. government's official web portal to all federal, state and local government web resources and services.